createdAt,value
2019-01-16T00:00:21.185Z,6.79
2019-01-16T00:01:21.124Z,6.69
2019-01-16T00:02:21.099Z,6.72
2019-01-16T00:03:21.087Z,6.76
2019-01-16T00:04:21.156Z,6.76
2019-01-16T00:05:21.063Z,6.71
2019-01-16T00:06:21.057Z,6.79
2019-01-16T00:07:21.091Z,6.73
2019-01-16T00:08:21.032Z,6.78
2019-01-16T00:09:21.027Z,6.72
2019-01-16T00:10:21.036Z,6.78
2019-01-16T00:11:20.995Z,6.79
2019-01-16T00:12:20.983Z,6.73
2019-01-16T00:13:21.003Z,6.73
2019-01-16T00:14:20.963Z,6.75
2019-01-16T00:15:20.973Z,6.81
2019-01-16T00:16:20.944Z,6.78
2019-01-16T00:17:20.937Z,6.79
2019-01-16T00:18:20.964Z,6.86
2019-01-16T00:19:20.909Z,6.75
2019-01-16T00:20:20.921Z,6.79
2019-01-16T00:21:20.918Z,6.82
2019-01-16T00:22:20.889Z,6.76
2019-01-16T00:23:20.879Z,6.82
2019-01-16T00:24:20.894Z,6.81
2019-01-16T00:25:20.883Z,6.69
2019-01-16T00:26:20.827Z,6.75
2019-01-16T00:27:20.814Z,6.78
2019-01-16T00:28:20.811Z,6.69
2019-01-16T00:29:20.870Z,6.78
2019-01-16T00:30:20.798Z,6.81
2019-01-16T00:31:20.794Z,6.73
2019-01-16T00:32:20.763Z,6.79
2019-01-16T00:33:20.760Z,6.78
2019-01-16T00:34:20.742Z,6.76
2019-01-16T00:35:20.769Z,6.79
2019-01-16T00:36:20.738Z,6.71
2019-01-16T00:37:20.723Z,6.76
2019-01-16T00:38:20.693Z,6.68
2019-01-16T00:39:20.684Z,6.71
2019-01-16T00:40:20.678Z,6.68
2019-01-16T00:41:20.677Z,6.73
2019-01-16T00:42:20.673Z,6.65
2019-01-16T00:43:20.634Z,6.73
2019-01-16T00:44:20.626Z,6.72
2019-01-16T00:45:20.629Z,6.71
2019-01-16T00:46:20.629Z,6.81
2019-01-16T00:47:20.603Z,6.81
2019-01-16T00:48:24.551Z,6.65
2019-01-16T00:49:20.628Z,6.83
2019-01-16T00:50:20.562Z,6.68
2019-01-16T00:51:20.555Z,6.73
2019-01-16T00:52:20.563Z,6.78
2019-01-16T00:53:20.533Z,6.71
2019-01-16T00:54:20.526Z,6.89
2019-01-16T00:55:20.504Z,6.83
2019-01-16T00:56:20.528Z,6.86
2019-01-16T00:57:20.485Z,6.78
2019-01-16T00:58:20.505Z,6.86
2019-01-16T00:59:20.474Z,6.76
2019-01-16T01:00:20.447Z,6.86
2019-01-16T01:01:20.439Z,6.78
2019-01-16T01:02:20.427Z,6.83
2019-01-16T01:03:20.438Z,6.83
2019-01-16T01:04:20.422Z,6.75
2019-01-16T01:05:20.407Z,6.79
2019-01-16T01:06:20.390Z,6.81
2019-01-16T01:07:20.378Z,6.72
2019-01-16T01:08:20.385Z,6.89
2019-01-16T01:09:20.348Z,6.79
2019-01-16T01:10:20.352Z,6.76
2019-01-16T01:11:20.346Z,6.78
2019-01-16T01:12:20.322Z,6.72
2019-01-16T01:13:20.301Z,6.83
2019-01-16T01:14:20.753Z,6.76
2019-01-16T01:15:20.315Z,6.89
2019-01-16T01:16:20.296Z,6.72
2019-01-16T01:17:20.268Z,6.76
2019-01-16T01:18:20.245Z,6.82
2019-01-16T01:19:20.258Z,6.79
2019-01-16T01:20:20.258Z,6.87
2019-01-16T01:21:20.217Z,6.87
2019-01-16T01:22:20.229Z,6.89
2019-01-16T01:23:20.192Z,6.83
2019-01-16T01:24:20.182Z,6.90
2019-01-16T01:25:20.273Z,6.81
2019-01-16T01:26:20.168Z,6.87
2019-01-16T01:27:20.154Z,6.75
2019-01-16T01:28:20.134Z,6.82
2019-01-16T01:29:20.120Z,6.72
2019-01-16T01:30:20.133Z,6.90
2019-01-16T01:31:20.144Z,6.83
2019-01-16T01:32:20.111Z,6.90
2019-01-16T01:33:20.099Z,6.89
2019-01-16T01:34:21.534Z,6.89
2019-01-16T01:35:20.061Z,6.86
2019-01-16T01:36:20.098Z,6.81
2019-01-16T01:37:20.077Z,6.90
2019-01-16T01:38:20.037Z,6.96
2019-01-16T01:39:20.012Z,6.91
2019-01-16T01:40:20.005Z,6.86
2019-01-16T01:41:20.001Z,6.87
2019-01-16T01:42:20.007Z,6.89
2019-01-16T01:43:20.041Z,6.90
2019-01-16T01:44:19.971Z,6.90
2019-01-16T01:45:19.947Z,6.83
2019-01-16T01:46:19.937Z,6.87
2019-01-16T01:47:19.924Z,6.81
2019-01-16T01:48:19.945Z,6.90
2019-01-16T01:49:19.929Z,6.91
2019-01-16T01:50:19.900Z,6.89
2019-01-16T01:51:19.884Z,6.87
2019-01-16T01:52:19.870Z,6.76
2019-01-16T01:53:19.866Z,6.73
2019-01-16T01:54:19.938Z,6.78
2019-01-16T01:55:19.843Z,6.79
2019-01-16T01:56:19.841Z,6.79
2019-01-16T01:57:19.828Z,6.72
2019-01-16T01:58:19.816Z,6.81
2019-01-16T01:59:19.798Z,6.71
2019-01-16T02:00:19.800Z,6.64
2019-01-16T02:01:19.782Z,6.69
2019-01-16T02:02:19.828Z,6.72
2019-01-16T02:03:19.746Z,6.64
2019-01-16T02:04:19.755Z,6.69
2019-01-16T02:05:19.740Z,6.72
2019-01-16T02:06:19.728Z,6.69
2019-01-16T02:07:19.715Z,6.76
2019-01-16T02:08:19.704Z,6.69
2019-01-16T02:09:20.406Z,6.68
2019-01-16T02:10:19.666Z,6.68
2019-01-16T02:11:19.658Z,6.69
2019-01-16T02:12:19.661Z,6.69
2019-01-16T02:13:19.645Z,6.72
2019-01-16T02:14:19.626Z,6.81
2019-01-16T02:15:19.653Z,6.73
2019-01-16T02:16:19.601Z,6.65
2019-01-16T02:17:19.591Z,6.69
2019-01-16T02:18:19.623Z,6.68
2019-01-16T02:19:19.561Z,6.72
2019-01-16T02:20:19.555Z,6.73
2019-01-16T02:21:19.566Z,6.75
2019-01-16T02:22:19.542Z,6.81
2019-01-16T02:23:19.525Z,6.78
2019-01-16T02:24:19.543Z,6.72
2019-01-16T02:25:19.512Z,6.69
2019-01-16T02:26:19.506Z,6.65
2019-01-16T02:27:19.487Z,6.72
2019-01-16T02:28:19.465Z,6.79
2019-01-16T02:29:19.466Z,6.79
2019-01-16T02:30:19.480Z,6.69
2019-01-16T02:31:19.501Z,6.79
2019-01-16T02:32:19.419Z,6.81
2019-01-16T02:33:19.414Z,6.81
2019-01-16T02:34:19.422Z,6.75
2019-01-16T02:35:19.399Z,6.73
2019-01-16T02:36:19.395Z,6.79
2019-01-16T02:37:19.374Z,6.68
2019-01-16T02:38:19.363Z,6.83
2019-01-16T02:39:19.355Z,6.79
2019-01-16T02:40:19.347Z,6.72
2019-01-16T02:41:19.343Z,6.76
2019-01-16T02:42:19.370Z,6.78
2019-01-16T02:43:19.314Z,6.78
2019-01-16T02:44:19.291Z,6.76
2019-01-16T02:45:19.280Z,6.83
2019-01-16T02:46:19.328Z,6.87
2019-01-16T02:47:19.263Z,6.81
2019-01-16T02:48:19.273Z,6.78
2019-01-16T02:49:19.287Z,6.86
2019-01-16T02:50:19.219Z,6.81
2019-01-16T02:51:19.220Z,6.90
2019-01-16T02:52:19.271Z,6.93
2019-01-16T02:53:19.210Z,6.89
2019-01-16T02:54:19.188Z,6.90
2019-01-16T02:55:19.161Z,6.91
2019-01-16T02:56:19.161Z,6.87
2019-01-16T02:57:19.174Z,6.87
2019-01-16T02:58:19.167Z,6.86
2019-01-16T02:59:19.144Z,6.87
2019-01-16T03:00:19.120Z,6.91
2019-01-16T03:01:19.100Z,6.91
2019-01-16T03:02:19.092Z,6.91
2019-01-16T03:03:19.087Z,6.91
2019-01-16T03:04:19.093Z,6.91
2019-01-16T03:05:19.078Z,6.86
2019-01-16T03:06:19.044Z,6.91
2019-01-16T03:07:19.071Z,6.76
2019-01-16T03:08:19.031Z,6.86
2019-01-16T03:09:19.053Z,6.86
2019-01-16T03:10:19.041Z,6.76
2019-01-16T03:11:19.009Z,6.91
2019-01-16T03:12:18.974Z,6.87
2019-01-16T03:13:18.993Z,6.90
2019-01-16T03:14:18.951Z,6.93
2019-01-16T03:15:18.962Z,6.91
2019-01-16T03:16:18.930Z,6.90
2019-01-16T03:17:18.929Z,6.83
2019-01-16T03:18:19.121Z,6.87
2019-01-16T03:20:29.644Z,6.89
2019-01-16T03:21:29.203Z,6.91
2019-01-16T03:22:29.268Z,6.78
2019-01-16T03:23:29.168Z,6.87
2019-01-16T03:24:29.069Z,6.75
2019-01-16T03:25:29.045Z,6.91
2019-01-16T03:26:29.071Z,6.90
2019-01-16T03:27:29.015Z,6.90
2019-01-16T03:28:29.018Z,6.76
2019-01-16T03:29:28.994Z,6.90
2019-01-16T03:30:28.994Z,6.79
2019-01-16T03:31:29.058Z,6.86
2019-01-16T03:32:29.001Z,6.81
2019-01-16T03:33:28.946Z,6.83
2019-01-16T03:34:28.937Z,6.89
2019-01-16T03:35:28.927Z,6.86
2019-01-16T03:36:28.914Z,6.78
2019-01-16T03:37:28.919Z,6.89
2019-01-16T03:38:28.926Z,6.89
2019-01-16T03:39:28.886Z,6.82
2019-01-16T03:40:28.873Z,6.76
2019-01-16T03:41:28.857Z,6.76
2019-01-16T03:42:28.853Z,6.89
2019-01-16T03:43:28.851Z,6.79
2019-01-16T03:44:28.869Z,6.83
2019-01-16T03:45:28.816Z,6.89
2019-01-16T03:46:28.803Z,6.90
2019-01-16T03:47:28.821Z,6.87
2019-01-16T03:48:28.776Z,6.73
2019-01-16T03:49:28.807Z,6.86
2019-01-16T03:50:28.759Z,6.86
2019-01-16T03:51:28.755Z,6.87
2019-01-16T03:52:28.739Z,6.93
2019-01-16T03:53:28.744Z,6.89
2019-01-16T03:54:28.717Z,6.89
2019-01-16T03:55:28.700Z,6.86
2019-01-16T03:56:28.709Z,6.86
2019-01-16T03:57:28.678Z,6.91
2019-01-16T03:58:28.684Z,6.86
2019-01-16T03:59:28.699Z,6.76
2019-01-16T04:00:28.651Z,6.89
2019-01-16T04:01:28.642Z,6.81
2019-01-16T04:02:28.636Z,6.91
2019-01-16T04:03:28.619Z,6.75
2019-01-16T04:04:28.608Z,6.76
2019-01-16T04:05:28.610Z,6.86
2019-01-16T04:06:28.586Z,6.89
2019-01-16T04:07:28.579Z,6.87
2019-01-16T04:08:28.575Z,6.72
2019-01-16T04:09:28.549Z,6.83
2019-01-16T04:10:28.558Z,6.75
2019-01-16T04:11:28.530Z,6.75
2019-01-16T04:12:28.526Z,6.79
2019-01-16T04:13:28.506Z,6.75
2019-01-16T04:14:28.531Z,6.81
2019-01-16T04:15:28.514Z,6.79
2019-01-16T04:16:28.469Z,6.71
2019-01-16T04:17:28.465Z,6.75
2019-01-16T04:18:28.452Z,6.87
2019-01-16T04:19:28.448Z,6.79
2019-01-16T04:20:28.468Z,6.89
2019-01-16T04:21:28.423Z,6.87
2019-01-16T04:22:28.416Z,6.79
2019-01-16T04:23:28.404Z,6.71
2019-01-16T04:24:28.386Z,6.86
2019-01-16T04:25:28.381Z,6.75
2019-01-16T04:26:28.415Z,6.76
2019-01-16T04:27:28.381Z,6.76
2019-01-16T04:28:28.339Z,6.83
2019-01-16T04:29:28.328Z,6.83
2019-01-16T04:30:28.317Z,6.76
2019-01-16T04:31:28.304Z,6.78
2019-01-16T04:32:28.338Z,6.83
2019-01-16T04:33:28.298Z,6.68
2019-01-16T04:34:28.284Z,6.72
2019-01-16T04:35:28.261Z,6.76
2019-01-16T04:36:28.271Z,6.78
2019-01-16T04:37:28.272Z,6.73
2019-01-16T04:38:28.283Z,6.76
2019-01-16T04:39:28.233Z,6.76
2019-01-16T04:40:28.220Z,6.73
2019-01-16T04:41:28.234Z,6.82
2019-01-16T04:42:30.870Z,6.72
2019-01-16T04:43:28.180Z,6.83
2019-01-16T04:44:28.181Z,6.76
2019-01-16T04:45:28.159Z,6.75
2019-01-16T04:46:28.176Z,6.75
2019-01-16T04:47:28.151Z,6.79
2019-01-16T04:48:28.142Z,6.76
2019-01-16T04:49:30.525Z,6.78
2019-01-16T04:50:28.103Z,6.81
2019-01-16T04:51:28.094Z,6.79
2019-01-16T04:52:28.087Z,6.83
2019-01-16T04:53:28.108Z,6.72
2019-01-16T04:54:28.096Z,6.71
2019-01-16T04:55:28.051Z,6.68
2019-01-16T04:56:28.040Z,6.73
2019-01-16T04:57:28.042Z,6.71
2019-01-16T04:58:28.044Z,6.64
2019-01-16T04:59:28.037Z,6.63
2019-01-16T05:00:27.991Z,6.68
2019-01-16T05:01:27.979Z,6.61
2019-01-16T05:02:27.993Z,6.63
2019-01-16T05:03:27.954Z,6.68
2019-01-16T05:04:27.959Z,6.61
2019-01-16T05:05:27.987Z,6.60
2019-01-16T05:06:27.932Z,6.58
2019-01-16T05:07:27.915Z,6.58
2019-01-16T05:08:27.911Z,6.55
2019-01-16T05:09:27.896Z,6.55
2019-01-16T05:10:27.887Z,6.53
2019-01-16T05:11:27.920Z,6.57
2019-01-16T05:12:29.441Z,6.55
2019-01-16T05:13:27.933Z,6.57
2019-01-16T05:14:27.831Z,6.64
2019-01-16T05:15:27.865Z,6.58
2019-01-16T05:16:27.815Z,6.57
2019-01-16T05:17:27.805Z,6.57
2019-01-16T05:18:27.819Z,6.60
2019-01-16T05:19:27.802Z,6.64
2019-01-16T05:20:27.771Z,6.61
2019-01-16T05:21:27.795Z,6.58
2019-01-16T05:22:27.760Z,6.60
2019-01-16T05:23:27.744Z,6.60
2019-01-16T05:24:27.762Z,6.61
2019-01-16T05:25:27.719Z,6.58
2019-01-16T05:26:27.903Z,6.64
2019-01-16T05:27:27.774Z,6.60
2019-01-16T05:28:27.684Z,6.63
2019-01-16T05:29:27.674Z,6.60
2019-01-16T05:30:27.666Z,6.60
2019-01-16T05:31:27.648Z,6.57
2019-01-16T05:32:27.699Z,6.48
2019-01-16T05:33:27.638Z,6.51
2019-01-16T05:34:27.613Z,6.57
2019-01-16T05:35:27.606Z,6.48
2019-01-16T05:36:27.783Z,6.48
2019-01-16T05:37:28.198Z,6.48
2019-01-16T05:38:27.584Z,6.51
2019-01-16T05:39:27.562Z,6.51
2019-01-16T05:40:27.593Z,6.50
2019-01-16T05:41:27.570Z,6.46
2019-01-16T05:42:27.562Z,6.57
2019-01-16T05:43:27.642Z,6.50
2019-01-16T05:44:27.560Z,6.50
2019-01-16T05:45:27.520Z,6.43
2019-01-16T05:46:27.528Z,6.43
2019-01-16T05:47:27.524Z,6.45
2019-01-16T05:48:27.521Z,6.42
2019-01-16T05:49:27.517Z,6.38
2019-01-16T05:50:27.445Z,6.40
2019-01-16T05:51:27.437Z,6.40
2019-01-16T05:52:27.435Z,6.36
2019-01-16T05:53:27.423Z,6.45
2019-01-16T05:54:27.449Z,6.33
2019-01-16T05:55:27.415Z,6.38
2019-01-16T05:56:27.384Z,6.39
2019-01-16T05:57:27.405Z,6.40
2019-01-16T05:58:27.359Z,6.43
2019-01-16T05:59:27.360Z,6.46
2019-01-16T06:00:27.350Z,6.42
2019-01-16T06:01:27.334Z,6.40
2019-01-16T06:02:27.308Z,6.35
2019-01-16T06:03:29.756Z,6.40
2019-01-16T06:04:27.972Z,6.46
2019-01-16T06:05:27.331Z,6.46
2019-01-16T06:06:27.263Z,6.40
2019-01-16T06:07:27.252Z,6.32
2019-01-16T06:08:28.830Z,6.43
2019-01-16T06:09:27.347Z,6.38
2019-01-16T06:10:27.231Z,6.39
2019-01-16T06:11:27.672Z,6.40
2019-01-16T06:12:27.209Z,6.42
2019-01-16T06:13:27.197Z,6.39
2019-01-16T06:14:27.189Z,6.40
2019-01-16T06:15:27.171Z,6.39
2019-01-16T06:16:27.179Z,6.40
2019-01-16T06:17:27.187Z,6.48
2019-01-16T06:18:27.136Z,6.42
2019-01-16T06:19:27.128Z,6.38
2019-01-16T06:20:27.156Z,6.46
2019-01-16T06:21:27.115Z,6.39
2019-01-16T06:22:27.089Z,6.39
2019-01-16T06:23:27.079Z,6.36
2019-01-16T06:24:27.072Z,6.36
2019-01-16T06:25:27.087Z,6.48
2019-01-16T06:26:27.113Z,6.50
2019-01-16T06:27:27.046Z,6.43
2019-01-16T06:28:27.044Z,6.40
2019-01-16T06:29:27.054Z,6.53
2019-01-16T06:30:27.089Z,6.45
2019-01-16T06:31:27.011Z,6.50
2019-01-16T06:32:27.001Z,6.53
2019-01-16T06:33:26.983Z,6.55
2019-01-16T06:34:26.991Z,6.51
2019-01-16T06:35:26.974Z,6.54
2019-01-16T06:36:27.107Z,6.63
2019-01-16T06:37:26.973Z,6.57
2019-01-16T06:38:27.012Z,6.55
2019-01-16T06:39:26.914Z,6.60
2019-01-16T06:40:26.967Z,6.54
2019-01-16T06:41:26.889Z,6.63
2019-01-16T06:42:26.869Z,6.61
2019-01-16T06:43:26.893Z,6.51
2019-01-16T06:44:26.873Z,6.55
2019-01-16T06:45:26.871Z,6.61
2019-01-16T06:46:26.835Z,6.61
2019-01-16T06:47:26.817Z,6.61
2019-01-16T06:48:26.814Z,6.63
2019-01-16T06:49:26.904Z,6.64
2019-01-16T06:50:26.789Z,6.64
2019-01-16T06:51:26.785Z,6.64
2019-01-16T06:52:26.762Z,6.64
2019-01-16T06:53:26.768Z,6.58
2019-01-16T06:54:28.870Z,6.55
2019-01-16T06:55:27.159Z,6.63
2019-01-16T06:56:27.065Z,6.71
2019-01-16T06:59:09.917Z,6.54
2019-01-16T07:01:26.122Z,6.64
2019-01-16T07:02:25.690Z,6.64
2019-01-16T07:03:25.682Z,6.61
2019-01-16T07:04:25.700Z,6.61
2019-01-16T07:05:25.655Z,6.68
2019-01-16T07:06:25.621Z,6.63
2019-01-16T07:07:26.358Z,6.60
2019-01-16T07:08:25.577Z,6.72
2019-01-16T07:09:25.583Z,6.68
2019-01-16T07:10:25.574Z,6.65
2019-01-16T07:11:25.581Z,6.61
2019-01-16T07:12:25.532Z,6.60
2019-01-16T07:13:25.519Z,6.53
2019-01-16T07:14:25.510Z,6.55
2019-01-16T07:15:25.540Z,6.58
2019-01-16T07:16:26.306Z,6.65
2019-01-16T07:17:25.510Z,6.65
2019-01-16T07:18:25.463Z,6.69
2019-01-16T07:19:25.572Z,6.65
2019-01-16T07:20:25.454Z,6.65
2019-01-16T07:21:25.439Z,6.69
2019-01-16T07:22:25.443Z,6.69
2019-01-16T07:23:25.421Z,6.65
2019-01-16T07:24:25.398Z,6.65
2019-01-16T07:25:25.388Z,6.69
2019-01-16T07:26:25.424Z,6.71
2019-01-16T07:27:25.383Z,6.69
2019-01-16T07:28:25.352Z,6.64
2019-01-16T07:29:25.354Z,6.71
2019-01-16T07:30:25.330Z,6.76
2019-01-16T07:31:25.339Z,6.68
2019-01-16T07:32:25.371Z,6.65
2019-01-16T07:33:25.309Z,6.69
2019-01-16T07:34:25.321Z,6.72
2019-01-16T07:35:25.282Z,6.68
2019-01-16T07:36:25.272Z,6.69
2019-01-16T07:37:25.265Z,6.64
2019-01-16T07:38:25.249Z,6.69
2019-01-16T07:39:25.234Z,6.65
2019-01-16T07:40:25.237Z,6.64
2019-01-16T07:41:25.211Z,6.68
2019-01-16T07:42:25.205Z,6.68
2019-01-16T07:43:25.310Z,6.68
2019-01-16T07:44:25.179Z,6.69
2019-01-16T07:45:25.770Z,6.69
2019-01-16T07:46:25.264Z,6.72
2019-01-16T07:47:25.151Z,6.65
2019-01-16T07:48:25.151Z,6.69
2019-01-16T07:49:25.974Z,6.65
2019-01-16T07:50:25.112Z,6.68
2019-01-16T07:51:25.095Z,6.65
2019-01-16T07:52:25.088Z,6.73
2019-01-16T07:53:25.213Z,6.78
2019-01-16T07:54:25.068Z,6.81
2019-01-16T07:55:25.058Z,6.69
2019-01-16T07:56:25.055Z,6.68
2019-01-16T07:57:25.030Z,6.71
2019-01-16T07:58:25.021Z,6.76
2019-01-16T07:59:25.047Z,6.68
2019-01-16T08:00:25.064Z,6.73
2019-01-16T08:01:25.002Z,6.81
2019-01-16T08:02:24.977Z,6.78
2019-01-16T08:03:24.962Z,6.79
2019-01-16T08:04:24.956Z,6.83
2019-01-16T08:05:24.995Z,6.64
2019-01-16T08:06:24.934Z,6.75
2019-01-16T08:07:24.934Z,6.73
2019-01-16T08:08:24.912Z,6.72
2019-01-16T08:09:24.898Z,6.79
2019-01-16T08:10:24.894Z,6.68
2019-01-16T08:11:24.907Z,6.78
2019-01-16T08:12:24.863Z,6.78
2019-01-16T08:13:24.866Z,6.83
2019-01-16T08:14:24.845Z,6.79
2019-01-16T08:15:24.830Z,6.78
2019-01-16T08:16:24.817Z,6.79
2019-01-16T08:17:24.825Z,6.82
2019-01-16T08:18:24.799Z,6.69
2019-01-16T08:19:24.802Z,6.78
2019-01-16T08:20:25.230Z,6.83
2019-01-16T08:21:24.760Z,6.81
2019-01-16T08:22:24.756Z,6.78
2019-01-16T08:23:24.754Z,6.83
2019-01-16T08:24:24.729Z,6.76
2019-01-16T08:25:24.733Z,6.81
2019-01-16T08:26:24.716Z,6.83
2019-01-16T08:27:24.745Z,6.86
2019-01-16T08:28:24.685Z,6.86
2019-01-16T08:29:24.672Z,6.73
2019-01-16T08:30:24.667Z,6.78
2019-01-16T08:31:24.667Z,6.72
2019-01-16T08:32:24.642Z,6.75
2019-01-16T08:33:24.748Z,6.87
2019-01-16T08:34:24.619Z,6.79
2019-01-16T08:35:24.606Z,6.83
2019-01-16T08:36:24.593Z,6.73
2019-01-16T08:37:24.603Z,6.90
2019-01-16T08:38:24.603Z,6.76
2019-01-16T08:39:24.569Z,6.87
2019-01-16T08:40:24.556Z,6.73
2019-01-16T08:41:24.535Z,6.86
2019-01-16T08:42:24.527Z,6.87
2019-01-16T08:43:24.546Z,6.83
2019-01-16T08:44:24.522Z,6.87
2019-01-16T08:45:24.507Z,6.89
2019-01-16T08:46:24.483Z,6.82
2019-01-16T08:47:24.471Z,6.89
2019-01-16T08:48:24.475Z,6.89
2019-01-16T08:49:24.475Z,6.83
2019-01-16T08:50:32.297Z,6.90
2019-01-16T08:51:25.428Z,6.93
2019-01-16T08:52:24.482Z,6.90
2019-01-16T08:53:24.427Z,6.91
2019-01-16T08:54:24.403Z,6.91
2019-01-16T08:55:24.383Z,6.89
2019-01-16T08:56:24.407Z,6.87
2019-01-16T08:57:24.359Z,6.87
2019-01-16T08:58:24.392Z,6.89
2019-01-16T08:59:24.337Z,6.81
2019-01-16T09:00:24.332Z,6.89
2019-01-16T09:01:24.365Z,6.87
2019-01-16T09:02:24.312Z,6.87
2019-01-16T09:03:24.294Z,6.86
2019-01-16T09:04:24.282Z,6.81
2019-01-16T09:05:24.272Z,6.75
2019-01-16T09:06:24.256Z,6.78
2019-01-16T09:07:24.276Z,6.91
2019-01-16T09:08:24.252Z,6.76
2019-01-16T09:09:24.227Z,6.73
2019-01-16T09:10:24.215Z,6.96
2019-01-16T09:11:24.205Z,6.83
2019-01-16T09:12:24.190Z,6.86
2019-01-16T09:13:24.193Z,6.89
2019-01-16T09:14:24.194Z,6.78
2019-01-16T09:15:24.161Z,6.82
2019-01-16T09:16:24.148Z,6.78
2019-01-16T09:17:24.243Z,6.78
2019-01-16T09:18:24.140Z,6.79
2019-01-16T09:19:24.115Z,6.73
2019-01-16T09:20:24.115Z,6.76
2019-01-16T09:21:24.094Z,6.86
2019-01-16T09:22:24.086Z,6.73
2019-01-16T09:23:24.087Z,6.82
2019-01-16T09:24:24.065Z,6.76
2019-01-16T09:25:24.081Z,6.82
2019-01-16T09:26:24.052Z,6.76
2019-01-16T09:27:24.026Z,6.76
2019-01-16T09:28:24.047Z,6.83
2019-01-16T09:29:24.005Z,6.75
2019-01-16T09:30:24.009Z,6.78
2019-01-16T09:31:24.017Z,6.79
2019-01-16T09:32:23.970Z,6.79
2019-01-16T09:33:23.974Z,6.75
2019-01-16T09:34:23.964Z,6.78
2019-01-16T09:35:23.944Z,6.81
2019-01-16T09:36:23.953Z,6.79
2019-01-16T09:37:23.915Z,6.78
2019-01-16T09:38:23.914Z,6.72
2019-01-16T09:39:23.906Z,6.78
2019-01-16T09:40:23.880Z,6.83
2019-01-16T09:41:23.872Z,6.75
2019-01-16T09:42:23.886Z,6.82
2019-01-16T09:43:23.850Z,6.78
2019-01-16T09:44:23.857Z,6.75
2019-01-16T09:45:23.913Z,6.82
2019-01-16T09:46:23.818Z,6.73
2019-01-16T09:47:23.834Z,6.82
2019-01-16T09:48:23.798Z,6.82
2019-01-16T09:49:23.786Z,6.78
2019-01-16T09:50:23.774Z,6.83
2019-01-16T09:51:23.845Z,6.82
2019-01-16T09:52:23.753Z,6.73
2019-01-16T09:53:23.769Z,6.71
2019-01-16T09:54:23.728Z,6.78
2019-01-16T09:55:23.716Z,6.78
2019-01-16T09:56:23.722Z,6.75
2019-01-16T09:57:23.720Z,6.78
2019-01-16T09:58:23.687Z,6.81
2019-01-16T09:59:23.680Z,6.83
2019-01-16T10:00:23.666Z,6.72
2019-01-16T10:01:23.681Z,6.83
2019-01-16T10:02:23.670Z,6.78
2019-01-16T10:03:23.725Z,6.75
2019-01-16T10:04:23.638Z,6.82
2019-01-16T10:05:23.647Z,6.86
2019-01-16T10:06:23.647Z,6.79
2019-01-16T10:07:23.629Z,6.82
2019-01-16T10:08:23.632Z,6.81
2019-01-16T10:09:23.577Z,6.82
2019-01-16T10:10:23.635Z,6.72
2019-01-16T10:11:23.545Z,6.72
2019-01-16T10:12:23.537Z,6.75
2019-01-16T10:13:23.538Z,6.72
2019-01-16T10:14:23.509Z,6.76
2019-01-16T10:15:23.500Z,6.79
2019-01-16T10:16:23.506Z,6.81
2019-01-16T10:17:23.485Z,6.73
2019-01-16T10:18:23.459Z,6.81
2019-01-16T10:19:23.468Z,6.71
2019-01-16T10:20:23.443Z,6.68
2019-01-16T10:21:23.493Z,6.73
2019-01-16T10:22:23.417Z,6.68
2019-01-16T10:23:23.411Z,6.71
2019-01-16T10:24:23.418Z,6.68
2019-01-16T10:25:23.454Z,6.60
2019-01-16T10:26:23.379Z,6.72
2019-01-16T10:27:23.392Z,6.69
2019-01-16T10:28:25.250Z,6.73
2019-01-16T10:29:23.359Z,6.68
2019-01-16T10:30:23.334Z,6.72
2019-01-16T10:31:23.349Z,6.73
2019-01-16T10:32:23.310Z,6.60
2019-01-16T10:33:23.300Z,6.68
2019-01-16T10:34:23.305Z,6.68
2019-01-16T10:35:23.285Z,6.68
2019-01-16T10:36:23.285Z,6.65
2019-01-16T10:37:23.258Z,6.63
2019-01-16T10:38:23.272Z,6.54
2019-01-16T10:39:23.248Z,6.63
2019-01-16T10:40:23.220Z,6.64
2019-01-16T10:41:23.235Z,6.55
2019-01-16T10:42:23.207Z,6.55
2019-01-16T10:43:23.234Z,6.57
2019-01-16T10:44:23.177Z,6.57
2019-01-16T10:45:23.165Z,6.64
2019-01-16T10:46:23.336Z,6.58
2019-01-16T10:47:23.148Z,6.58
2019-01-16T10:48:23.184Z,6.60
2019-01-16T10:49:23.127Z,6.65
2019-01-16T10:50:23.146Z,6.53
2019-01-16T10:51:23.119Z,6.63
2019-01-16T10:52:23.145Z,6.64
2019-01-16T10:53:23.083Z,6.61
2019-01-16T10:54:23.073Z,6.64
2019-01-16T10:55:23.086Z,6.68
2019-01-16T10:56:23.080Z,6.60
2019-01-16T10:57:23.037Z,6.63
2019-01-16T10:58:23.051Z,6.72
2019-01-16T10:59:23.019Z,6.65
2019-01-16T11:00:23.061Z,6.71
2019-01-16T11:01:23.054Z,6.71
2019-01-16T11:02:22.997Z,6.63
2019-01-16T11:03:22.973Z,6.58
2019-01-16T11:04:22.978Z,6.61
2019-01-16T11:05:22.948Z,6.65
2019-01-16T11:06:22.938Z,6.63
2019-01-16T11:07:22.951Z,6.58
2019-01-16T11:08:22.972Z,6.63
2019-01-16T11:09:24.737Z,6.54
2019-01-16T11:10:22.908Z,6.61
2019-01-16T11:11:22.904Z,6.64
2019-01-16T11:12:22.908Z,6.63
2019-01-16T11:13:22.943Z,6.63
2019-01-16T11:14:22.855Z,6.61
2019-01-16T11:15:22.940Z,6.63
2019-01-16T11:16:22.827Z,6.60
2019-01-16T11:17:22.815Z,6.63
2019-01-16T11:18:23.165Z,6.63
2019-01-16T11:19:22.815Z,6.61
2019-01-16T11:20:22.783Z,6.60
2019-01-16T11:21:22.837Z,6.63
2019-01-16T11:22:22.792Z,6.60
2019-01-16T11:23:22.752Z,6.60
2019-01-16T11:24:22.750Z,6.53
2019-01-16T11:25:22.798Z,6.68
2019-01-16T11:26:22.716Z,6.58
2019-01-16T11:27:24.308Z,6.60
2019-01-16T11:28:22.706Z,6.50
2019-01-16T11:29:22.812Z,6.57
2019-01-16T11:30:22.713Z,6.55
2019-01-16T11:31:22.662Z,6.55
2019-01-16T11:32:22.671Z,6.48
2019-01-16T11:33:22.638Z,6.55
2019-01-16T11:34:22.629Z,6.45
2019-01-16T11:35:22.617Z,6.54
2019-01-16T11:36:22.622Z,6.53
2019-01-16T11:37:22.591Z,6.55
2019-01-16T11:38:22.596Z,6.55
2019-01-16T11:39:22.571Z,6.54
2019-01-16T11:40:22.563Z,6.57
2019-01-16T11:41:22.572Z,6.54
2019-01-16T11:42:22.539Z,6.51
2019-01-16T11:43:22.525Z,6.51
2019-01-16T11:44:22.526Z,6.48
2019-01-16T11:45:22.511Z,6.53
2019-01-16T11:46:22.520Z,6.51
2019-01-16T11:47:22.486Z,6.50
2019-01-16T11:48:22.474Z,6.48
2019-01-16T11:49:22.461Z,6.46
2019-01-16T11:50:22.447Z,6.46
2019-01-16T11:51:22.550Z,6.46
2019-01-16T11:52:22.448Z,6.50
2019-01-16T11:53:22.423Z,6.43
2019-01-16T11:54:22.406Z,6.50
2019-01-16T11:55:22.441Z,6.50
2019-01-16T11:56:22.382Z,6.45
2019-01-16T11:57:22.392Z,6.42
2019-01-16T11:58:23.235Z,6.50
2019-01-16T11:59:22.350Z,6.46
2019-01-16T12:00:22.340Z,6.53
2019-01-16T12:01:22.330Z,6.51
2019-01-16T12:02:22.397Z,6.51
2019-01-16T12:03:22.326Z,6.50
2019-01-16T12:04:22.317Z,6.54
2019-01-16T12:05:22.300Z,6.55
2019-01-16T12:06:22.275Z,6.53
2019-01-16T12:07:22.323Z,6.50
2019-01-16T12:08:22.263Z,6.45
2019-01-16T12:09:22.245Z,6.51
2019-01-16T12:10:22.260Z,6.43
2019-01-16T12:11:22.214Z,6.53
2019-01-16T12:12:22.209Z,6.48
2019-01-16T12:13:22.196Z,6.54
2019-01-16T12:14:22.201Z,6.51
2019-01-16T12:15:22.173Z,6.51
2019-01-16T12:16:22.184Z,6.53
2019-01-16T12:17:22.154Z,6.50
2019-01-16T12:18:22.139Z,6.51
2019-01-16T12:19:22.142Z,6.51
2019-01-16T12:20:22.134Z,6.54
2019-01-16T12:21:26.258Z,6.51
2019-01-16T12:22:23.119Z,6.55
2019-01-16T12:23:22.083Z,6.50
2019-01-16T12:24:22.101Z,6.50
2019-01-16T12:25:22.077Z,6.51
2019-01-16T12:26:22.059Z,6.50
2019-01-16T12:27:22.089Z,6.39
2019-01-16T12:28:22.041Z,6.51
2019-01-16T12:29:22.038Z,6.46
2019-01-16T12:30:22.015Z,6.42
2019-01-16T12:31:21.995Z,6.46
2019-01-16T12:32:21.990Z,6.50
2019-01-16T12:33:22.009Z,6.51
2019-01-16T12:34:21.986Z,6.50
2019-01-16T12:35:21.954Z,6.54
2019-01-16T12:36:21.961Z,6.48
2019-01-16T12:37:21.931Z,6.50
2019-01-16T12:38:21.928Z,6.55
2019-01-16T12:39:21.931Z,6.55
2019-01-16T12:40:21.947Z,6.53
2019-01-16T12:41:21.902Z,6.53
2019-01-16T12:42:21.879Z,6.54
2019-01-16T12:43:21.901Z,6.53
2019-01-16T12:44:21.881Z,6.54
2019-01-16T12:45:21.894Z,6.46
2019-01-16T12:46:21.836Z,6.51
2019-01-16T12:47:21.826Z,6.54
2019-01-16T12:48:21.841Z,6.53
2019-01-16T12:49:21.840Z,6.54
2019-01-16T12:50:21.784Z,6.48
2019-01-16T12:51:21.806Z,6.51
2019-01-16T12:52:21.767Z,6.40
2019-01-16T12:53:21.761Z,6.54
2019-01-16T12:54:21.783Z,6.54
2019-01-16T12:55:21.751Z,6.55
2019-01-16T12:56:21.738Z,6.57
2019-01-16T12:57:21.711Z,6.53
2019-01-16T12:58:21.699Z,6.61
2019-01-16T12:59:21.694Z,6.53
2019-01-16T13:00:21.690Z,6.63
2019-01-16T13:01:21.682Z,6.63
2019-01-16T13:02:21.677Z,6.58
2019-01-16T13:03:21.651Z,6.64
2019-01-16T13:04:22.235Z,6.54
2019-01-16T13:05:21.643Z,6.63
2019-01-16T13:06:21.648Z,6.57
2019-01-16T13:07:21.679Z,6.60
2019-01-16T13:08:21.859Z,6.50
2019-01-16T13:09:21.580Z,6.57
2019-01-16T13:10:21.678Z,6.53
2019-01-16T13:11:21.561Z,6.55
2019-01-16T13:12:21.595Z,6.48
2019-01-16T13:13:23.366Z,6.51
2019-01-16T13:14:30.138Z,6.48
2019-01-16T13:17:37.320Z,6.48
2019-01-16T13:19:46.960Z,6.45
2019-01-16T13:20:46.602Z,6.48
2019-01-16T13:21:46.515Z,6.48
2019-01-16T13:22:46.816Z,6.45
2019-01-16T13:23:46.488Z,6.40
2019-01-16T13:24:46.443Z,6.48
2019-01-16T13:25:46.424Z,6.38